Time;durP1;ratioP1;P1;durP2;ratioP2;P2;SDS_P1;SDS_P2;PMS_P1;PMS_P2;Temp;Humidity;BMP_temperature;BMP_pressure;BME280_temperature;BME280_humidity;BME280_pressure;Samples;Min_cycle;Max_cycle;Signal;HPM_P1;HPM_P2
2021/10/24 00:00:57;;;;;;;8.77;4.13;;;;;;;9.37;100.00;98544.09;5065762;28;20538;-87
2021/10/24 00:03:23;;;;;;;5.60;3.63;;;;;;;9.36;100.00;98545.00;5068738;28;20037;-87
2021/10/24 00:05:48;;;;;;;5.03;3.25;;;;;;;9.23;100.00;98533.97;5073250;28;20087;-88
2021/10/24 00:08:14;;;;;;;9.63;4.07;;;;;;;9.29;100.00;98540.00;5071653;28;20036;-87
2021/10/24 00:10:40;;;;;;;5.82;4.03;;;;;;;9.20;100.00;98522.53;5066314;28;20031;-87
2021/10/24 00:13:05;;;;;;;11.00;8.02;;;;;;;9.26;100.00;98532.97;5067158;28;20040;-87
2021/10/24 00:15:31;;;;;;;19.90;11.05;;;;;;;9.29;100.00;98537.34;5066039;28;20057;-88
2021/10/24 00:17:57;;;;;;;17.75;10.18;;;;;;;9.22;100.00;98526.91;5065529;28;20474;-86
2021/10/24 00:20:23;;;;;;;18.02;11.05;;;;;;;9.24;100.00;98535.72;5071588;28;20032;-87
2021/10/24 00:22:48;;;;;;;19.98;12.60;;;;;;;9.36;100.00;98541.47;5072574;28;20073;-87
2021/10/24 00:25:14;;;;;;;17.85;11.88;;;;;;;9.36;100.00;98541.47;5067860;28;20089;-87
2021/10/24 00:27:39;;;;;;;18.70;11.60;;;;;;;9.43;100.00;98538.50;5073596;28;20539;-87
2021/10/24 00:30:06;;;;;;;21.80;11.00;;;;;;;9.42;100.00;98544.75;5065427;28;20498;-87
2021/10/24 00:32:32;;;;;;;17.25;10.02;;;;;;;9.42;100.00;98533.19;5080287;28;20036;-86
2021/10/24 00:34:57;;;;;;;15.68;9.30;;;;;;;9.51;100.00;98541.72;5073427;28;20029;-86
2021/10/24 00:37:23;;;;;;;18.70;10.02;;;;;;;9.50;100.00;98536.44;5060235;28;20051;-87
2021/10/24 00:39:49;;;;;;;17.05;9.13;;;;;;;9.49;100.00;98527.56;5074863;28;20117;-87
2021/10/24 00:42:14;;;;;;;14.70;8.40;;;;;;;9.51;100.00;98517.66;5072207;28;20032;-89
2021/10/24 00:44:40;;;;;;;12.57;8.20;;;;;;;9.54;100.00;98533.56;5086206;28;20031;-87
2021/10/24 00:47:06;;;;;;;18.23;7.68;;;;;;;9.49;100.00;98519.53;5064965;28;20032;-87
2021/10/24 00:49:33;;;;;;;14.95;8.75;;;;;;;9.51;100.00;98532.81;5070787;28;20015;-87
2021/10/24 00:51:59;;;;;;;14.60;7.43;;;;;;;9.45;100.00;98511.72;5069696;28;20569;-88
2021/10/24 00:54:26;;;;;;;10.45;6.97;;;;;;;9.53;100.00;98517.63;5073378;28;20103;-88
2021/10/24 00:56:55;;;;;;;11.77;7.47;;;;;;;9.50;100.00;98523.09;5065293;28;20048;-88
2021/10/24 00:59:25;;;;;;;13.43;7.03;;;;;;;9.53;100.00;98531.84;5068935;28;20032;-87
2021/10/24 01:01:51;;;;;;;11.15;6.90;;;;;;;9.53;100.00;98528.31;5068538;28;20015;-87
2021/10/24 01:04:18;;;;;;;10.73;6.20;;;;;;;9.59;100.00;98530.72;5064017;28;20078;-88
2021/10/24 01:06:45;;;;;;;13.55;6.80;;;;;;;9.54;100.00;98522.00;5072766;28;20455;-88
2021/10/24 01:09:13;;;;;;;7.32;4.85;;;;;;;9.55;100.00;98534.44;5079689;28;20426;-87
2021/10/24 01:11:49;;;;;;;7.65;3.67;;;;;;;9.41;100.00;98521.69;5071003;28;20031;-88
2021/10/24 01:14:15;;;;;;;6.18;3.30;;;;;;;9.40;100.00;98527.06;5069791;28;20079;-87
2021/10/24 01:16:42;;;;;;;8.82;3.00;;;;;;;9.54;100.00;98543.38;5071155;28;20028;-88
2021/10/24 01:19:11;;;;;;;4.38;2.65;;;;;;;9.55;100.00;98539.78;5059199;28;20054;-87
2021/10/24 01:21:37;;;;;;;3.78;2.65;;;;;;;9.60;100.00;98545.78;5067622;28;20020;-88
2021/10/24 01:24:03;;;;;;;4.07;2.83;;;;;;;9.54;100.00;98544.25;5075486;28;20462;-88
2021/10/24 01:26:29;;;;;;;6.05;2.70;;;;;;;9.55;100.00;98545.13;5088771;28;20003;-88
2021/10/24 01:29:10;;;;;;;2.78;2.40;;;;;;;9.52;100.00;98534.56;5077239;28;20399;-86
2021/10/24 01:31:37;;;;;;;6.10;2.70;;;;;;;9.59;100.00;98557.44;5075610;28;20047;-88
2021/10/24 01:34:06;;;;;;;4.80;2.67;;;;;;;9.47;100.00;98547.25;5072132;28;20085;-87
2021/10/24 01:36:32;;;;;;;8.25;3.20;;;;;;;9.53;100.00;98536.31;5066312;28;20023;-87
2021/10/24 01:38:58;;;;;;;13.25;3.25;;;;;;;9.66;100.00;98542.84;5059238;28;20039;-87
2021/10/24 01:41:24;;;;;;;3.67;3.00;;;;;;;9.52;100.00;98507.84;5076754;28;20115;-87
2021/10/24 01:43:51;;;;;;;6.45;3.38;;;;;;;9.57;100.00;98527.22;5077205;28;20032;-87
2021/10/24 01:46:18;;;;;;;5.25;3.22;;;;;;;9.56;100.00;98520.16;5061397;28;20020;-87
2021/10/24 01:48:44;;;;;;;9.75;3.35;;;;;;;9.63;100.00;98548.31;5065413;28;20036;-87
2021/10/24 01:51:11;;;;;;;6.55;3.50;;;;;;;9.56;100.00;98542.41;5078028;28;20028;-87
2021/10/24 01:53:41;;;;;;;4.90;3.85;;;;;;;9.52;100.00;98543.44;5070984;28;20032;-86
2021/10/24 01:56:07;;;;;;;9.65;3.85;;;;;;;9.58;100.00;98545.88;5075153;28;20486;-86
2021/10/24 01:58:33;;;;;;;6.57;3.83;;;;;;;9.62;100.00;98544.81;5076995;28;20130;-87
2021/10/24 02:00:59;;;;;;;9.05;3.78;;;;;;;9.58;100.00;98536.97;5081171;28;20081;-87
2021/10/24 02:03:25;;;;;;;5.53;3.90;;;;;;;9.56;100.00;98537.06;5071065;28;20075;-87
2021/10/24 02:05:51;;;;;;;5.90;3.95;;;;;;;9.54;100.00;98540.69;5067947;28;20028;-86
2021/10/24 02:08:17;;;;;;;6.07;3.72;;;;;;;9.50;100.00;98525.75;5079078;28;20122;-87
2021/10/24 02:10:43;;;;;;;5.70;3.38;;;;;;;9.54;100.00;98540.69;5092463;28;20095;-86
2021/10/24 02:13:10;;;;;;;7.90;3.63;;;;;;;9.46;100.00;98541.03;5076590;28;20031;-87
2021/10/24 02:15:36;;;;;;;5.75;3.47;;;;;;;9.50;100.00;98541.78;5065219;28;20438;-86
2021/10/24 02:18:03;;;;;;;7.95;4.07;;;;;;;9.58;100.00;98553.00;5078626;28;20133;-87
2021/10/24 02:20:29;;;;;;;5.90;3.90;;;;;;;9.53;100.00;98533.66;5081325;28;20442;-86
2021/10/24 02:22:55;;;;;;;5.55;3.45;;;;;;;9.63;100.00;98546.53;5082339;28;20031;-86
2021/10/24 02:25:21;;;;;;;6.68;4.30;;;;;;;9.63;100.00;98537.66;5075470;28;20102;-87
2021/10/24 02:27:47;;;;;;;7.57;4.05;;;;;;;9.57;100.00;98537.91;5067387;28;20028;-87
2021/10/24 02:30:13;;;;;;;6.95;4.47;;;;;;;9.54;100.00;98548.72;5074864;28;20490;-87
2021/10/24 02:32:40;;;;;;;9.18;4.35;;;;;;;9.50;100.00;98536.44;5070648;28;20028;-87
2021/10/24 02:35:06;;;;;;;6.75;4.30;;;;;;;9.58;100.00;98553.00;5071537;28;20019;-87
2021/10/24 02:37:31;;;;;;;9.80;4.32;;;;;;;9.54;100.00;98556.72;5076763;28;20465;-87
2021/10/24 02:39:57;;;;;;;8.75;5.20;;;;;;;9.44;100.00;98547.38;5062587;28;20026;-87
2021/10/24 02:42:23;;;;;;;8.70;5.25;;;;;;;9.64;100.00;98560.75;5070717;28;20024;-87
2021/10/24 02:44:48;;;;;;;8.27;4.97;;;;;;;9.55;100.00;98547.78;5067004;28;20028;-85
2021/10/24 02:47:17;;;;;;;10.43;4.53;;;;;;;9.52;100.00;98567.50;5072673;28;20020;-86
2021/10/24 02:49:42;;;;;;;7.55;4.47;;;;;;;9.46;100.00;98564.19;5069887;28;20118;-86
2021/10/24 02:52:08;;;;;;;6.72;4.38;;;;;;;9.48;100.00;98565.88;5073741;28;20458;-87
2021/10/24 02:54:34;;;;;;;7.82;4.53;;;;;;;9.44;100.00;98566.06;5089741;28;20380;-87
2021/10/24 02:57:02;;;;;;;5.95;3.88;;;;;;;9.45;100.00;98559.78;5061304;28;20147;-87
2021/10/24 02:59:27;;;;;;;7.45;4.32;;;;;;;9.41;100.00;98555.53;5073815;28;20065;-88
2021/10/24 03:01:53;;;;;;;9.20;5.00;;;;;;;9.42;100.00;98549.22;5079134;28;20031;-87
2021/10/24 03:04:18;;;;;;;5.80;4.13;;;;;;;9.46;100.00;98567.75;5073402;28;20043;-87
2021/10/24 03:06:45;;;;;;;6.32;3.80;;;;;;;9.40;100.00;98570.66;5092727;28;20028;-87
2021/10/24 03:09:10;;;;;;;6.47;4.25;;;;;;;9.46;100.00;98582.91;5063047;28;20039;-88
2021/10/24 03:11:36;;;;;;;7.22;4.60;;;;;;;9.39;100.00;98576.06;5063287;28;20131;-87
2021/10/24 03:14:02;;;;;;;5.68;4.03;;;;;;;9.45;100.00;98570.47;5063709;28;20029;-86
2021/10/24 03:16:27;;;;;;;9.43;4.47;;;;;;;9.41;100.00;98558.19;5089751;28;20179;-86
2021/10/24 03:18:53;;;;;;;6.57;4.05;;;;;;;9.53;100.00;98573.72;5086794;28;20035;-87
2021/10/24 03:21:18;;;;;;;7.05;3.65;;;;;;;9.43;100.00;98569.66;5061012;28;20056;-86
2021/10/24 03:23:44;;;;;;;6.13;3.97;;;;;;;9.47;100.00;98566.81;5058190;28;20488;-88
2021/10/24 03:26:10;;;;;;;7.43;3.90;;;;;;;9.50;100.00;98573.84;5069728;28;20129;-87
2021/10/24 03:28:36;;;;;;;7.13;4.55;;;;;;;9.46;100.00;98566.88;5075648;28;20027;-87
2021/10/24 03:31:02;;;;;;;9.20;5.15;;;;;;;9.30;100.00;98555.06;5069705;28;20035;-87
2021/10/24 03:33:27;;;;;;;12.02;5.28;;;;;;;9.37;100.00;98578.81;5065166;28;20116;-86
2021/10/24 03:35:53;;;;;;;9.13;5.63;;;;;;;9.40;100.00;98576.00;5065187;28;20024;-86
2021/10/24 03:38:19;;;;;;;9.20;6.20;;;;;;;9.43;100.00;98577.69;5060845;28;20023;-87
2021/10/24 03:40:45;;;;;;;12.32;7.22;;;;;;;9.44;100.00;98568.75;5071310;28;20042;-86
2021/10/24 03:43:10;;;;;;;11.57;6.28;;;;;;;9.39;100.00;98579.59;5066025;28;20481;-86
2021/10/24 03:45:36;;;;;;;10.18;5.90;;;;;;;9.32;100.00;98566.56;5072891;28;20054;-86
2021/10/24 03:48:01;;;;;;;12.35;5.55;;;;;;;9.29;100.00;98564.88;5072114;28;20115;-86
2021/10/24 03:50:27;;;;;;;8.38;5.45;;;;;;;9.35;100.00;98558.44;5085954;28;20047;-86
2021/10/24 03:52:53;;;;;;;13.18;6.18;;;;;;;9.43;100.00;98572.34;5076866;28;20032;-87
2021/10/24 03:55:18;;;;;;;10.55;6.20;;;;;;;9.45;100.00;98575.81;5063012;28;20089;-86
2021/10/24 03:57:44;;;;;;;12.25;6.38;;;;;;;9.39;100.00;98565.38;5066344;28;20442;-86
2021/10/24 04:00:11;;;;;;;10.70;5.53;;;;;;;9.36;100.00;98565.50;5078080;28;20503;-87
2021/10/24 04:02:58;;;;;;;9.95;6.03;;;;;;;9.44;100.00;98574.09;5079401;28;20031;-87
2021/10/24 04:05:25;;;;;;;12.05;6.35;;;;;;;9.40;100.00;98568.00;5068802;28;20027;-87
2021/10/24 04:07:52;;;;;;;9.80;5.93;;;;;;;9.29;100.00;98564.88;5060203;28;20058;-87
2021/10/24 04:10:19;;;;;;;10.38;5.90;;;;;;;9.23;100.00;98555.31;5060806;28;20027;-87
2021/10/24 04:12:45;;;;;;;10.00;6.13;;;;;;;9.30;100.00;98563.06;5063416;28;20024;-87
2021/10/24 04:15:11;;;;;;;16.38;8.52;;;;;;;9.24;100.00;98566.88;5067700;28;20498;-88
2021/10/24 04:17:37;;;;;;;18.30;10.13;;;;;;;9.21;100.00;98572.34;5060444;28;20135;-86
2021/10/24 04:20:07;;;;;;;14.90;8.55;;;;;;;9.14;100.00;98571.72;5068211;28;20089;-87
2021/10/24 04:22:36;;;;;;;10.95;7.10;;;;;;;9.20;100.00;98579.47;5067068;28;20088;-87
2021/10/24 04:25:04;;;;;;;14.40;7.20;;;;;;;9.22;100.00;98569.63;5074652;28;20110;-77
2021/10/24 04:27:29;;;;;;;17.38;9.10;;;;;;;9.23;100.00;98571.34;5095664;28;20086;-88
2021/10/24 04:29:55;;;;;;;15.50;10.05;;;;;;;9.24;100.00;98573.09;5085695;28;20052;-84
2021/10/24 04:32:20;;;;;;;12.18;6.70;;;;;;;9.20;100.00;98570.59;5068567;28;20085;-87
2021/10/24 04:34:46;;;;;;;10.13;6.32;;;;;;;9.23;100.00;98571.34;5068878;28;20458;-87
2021/10/24 04:37:12;;;;;;;8.27;4.65;;;;;;;9.26;100.00;98581.91;5063033;28;20028;-87
2021/10/24 04:39:37;;;;;;;12.63;4.72;;;;;;;9.30;100.00;98579.09;5062631;28;20034;-87
2021/10/24 04:42:04;;;;;;;8.00;4.00;;;;;;;9.25;100.00;98573.97;5075099;28;20030;-87
2021/10/24 04:44:30;;;;;;;9.27;4.60;;;;;;;9.26;100.00;98568.53;5064273;28;20699;-86
2021/10/24 04:46:55;;;;;;;9.90;5.05;;;;;;;9.27;100.00;98572.97;5075938;28;20059;-86
2021/10/24 04:49:21;;;;;;;8.75;4.40;;;;;;;9.27;100.00;98580.97;5070782;28;20472;-86
2021/10/24 04:51:47;;;;;;;7.68;4.75;;;;;;;9.18;100.00;98575.13;5096529;28;20098;-85
2021/10/24 04:54:13;;;;;;;8.95;5.13;;;;;;;9.22;100.00;98588.31;5059325;28;20028;-86
2021/10/24 04:56:40;;;;;;;9.70;5.00;;;;;;;9.23;100.00;98587.34;5063871;28;20044;-86
2021/10/24 04:59:05;;;;;;;10.57;5.35;;;;;;;9.18;100.00;98588.47;5065816;28;20112;-86
2021/10/24 05:01:31;;;;;;;12.65;5.38;;;;;;;9.22;100.00;98595.44;5061229;28;20020;-88
2021/10/24 05:03:56;;;;;;;8.45;5.18;;;;;;;9.21;100.00;98583.88;5060376;28;20066;-87
2021/10/24 05:06:22;;;;;;;19.75;9.65;;;;;;;9.23;100.00;98587.34;5072569;28;20016;-87
2021/10/24 05:08:48;;;;;;;19.77;10.73;;;;;;;9.36;100.00;98592.19;5071998;28;20486;-86
2021/10/24 05:11:13;;;;;;;14.73;7.82;;;;;;;9.35;100.00;98609.19;5059063;28;20056;-87
2021/10/24 05:13:39;;;;;;;10.93;6.35;;;;;;;9.36;100.00;98624.25;5075517;28;20054;-86
2021/10/24 05:16:11;;;;;;;12.40;6.72;;;;;;;9.38;100.00;98619.72;5077738;28;20043;-87
2021/10/24 05:18:44;;;;;;;10.98;7.25;;;;;;;9.35;100.00;98595.81;5068484;28;20066;-88
2021/10/24 05:21:10;;;;;;;13.05;8.90;;;;;;;9.35;100.00;98590.47;5076394;28;20126;-89
2021/10/24 05:23:38;;;;;;;16.23;8.30;;;;;;;9.39;100.00;98608.09;5054125;28;20052;-88
2021/10/24 05:26:33;;;;;;;15.25;9.40;;;;;;;9.41;100.00;98603.59;5069015;28;20490;-89
2021/10/24 05:29:19;;;;;;;12.13;7.18;;;;;;;9.42;100.00;98599.97;5069358;28;20040;-89
2021/10/24 05:31:45;;;;;;;11.95;6.10;;;;;;;9.52;100.00;98626.25;5079113;28;20031;-90
2021/10/24 05:34:13;;;;;;;12.95;7.30;;;;;;;9.41;100.00;98612.47;5080697;28;20031;-88
2021/10/24 05:36:47;;;;;;;10.50;6.93;;;;;;;9.18;100.00;98567.13;5079849;28;20410;-87
2021/10/24 05:39:15;;;;;;;15.52;7.10;;;;;;;9.53;100.00;98621.78;5082156;28;20092;-87
2021/10/24 05:41:41;;;;;;;11.18;6.80;;;;;;;9.45;100.00;98610.53;5059365;28;20473;-88
2021/10/24 05:44:09;;;;;;;9.35;5.32;;;;;;;9.42;100.00;98602.63;5063338;28;20057;-86
2021/10/24 05:46:35;;;;;;;9.55;6.53;;;;;;;9.69;100.00;98649.63;5068756;28;20028;-85
2021/10/24 05:49:01;;;;;;;18.35;8.73;;;;;;;9.82;100.00;98651.72;5059910;28;20032;-84
2021/10/24 05:51:27;;;;;;;13.35;8.50;;;;;;;9.93;100.00;98653.94;5058351;28;20086;-86
2021/10/24 05:53:53;;;;;;;19.85;6.47;;;;;;;9.92;100.00;98667.34;5077063;28;20024;-86
2021/10/24 05:56:18;;;;;;;13.32;8.43;;;;;;;9.87;100.00;98666.69;5061859;28;20016;-87
2021/10/24 05:58:44;;;;;;;24.50;14.73;;;;;;;9.94;100.00;98665.47;5059213;28;20097;-79
2021/10/24 06:01:10;;;;;;;54.85;35.95;;;;;;;9.93;100.00;98667.31;5079593;28;20400;-77
2021/10/24 06:03:35;;;;;;;38.58;23.70;;;;;;;10.02;100.00;98680.28;5080575;28;20020;-78
2021/10/24 06:06:01;;;;;;;72.45;41.15;;;;;;;10.14;100.00;98679.81;5080161;28;20402;-78
2021/10/24 06:08:27;;;;;;;24.10;12.43;;;;;;;10.27;100.00;98686.34;5077283;28;20024;-81
2021/10/24 06:10:56;;;;;;;12.48;6.97;;;;;;;10.18;100.00;98670.72;5061433;28;20032;-87
2021/10/24 06:13:22;;;;;;;8.98;5.10;;;;;;;10.44;96.80;98690.13;5067554;28;20092;-88
2021/10/24 06:15:48;;;;;;;8.95;5.30;;;;;;;10.57;94.44;98702.91;5064475;28;20130;-81
2021/10/24 06:18:14;;;;;;;7.20;4.55;;;;;;;10.67;92.99;98706.94;5101142;28;20028;-79
2021/10/24 06:20:40;;;;;;;7.88;4.53;;;;;;;10.89;91.46;98706.84;5066317;28;20020;-87
2021/10/24 06:23:05;;;;;;;6.05;4.13;;;;;;;11.08;90.15;98712.22;5069108;28;20024;-87
2021/10/24 06:25:32;;;;;;;42.83;23.27;;;;;;;11.19;86.31;98709.97;5074860;28;20023;-87
2021/10/24 06:27:57;;;;;;;44.22;24.10;;;;;;;11.26;84.48;98716.75;5070704;28;20122;-89
2021/10/24 06:30:23;;;;;;;7.65;4.20;;;;;;;11.49;83.06;98719.25;5065480;28;20051;-81
2021/10/24 06:32:51;;;;;;;8.18;5.38;;;;;;;11.57;79.65;98719.75;5081669;28;20800;-81
2021/10/24 06:35:16;;;;;;;36.10;18.58;;;;;;;11.39;79.72;98718.81;5050846;28;20493;-77
2021/10/24 06:37:44;;;;;;;34.58;16.50;;;;;;;11.68;77.39;98735.34;5102122;28;20201;-84
2021/10/24 06:40:11;;;;;;;20.42;10.35;;;;;;;11.96;74.12;98722.38;5061492;28;20036;-83
2021/10/24 06:42:37;;;;;;;9.68;3.83;;;;;;;12.12;70.08;98715.31;5068541;28;20551;-79
2021/10/24 06:45:04;;;;;;;5.13;3.03;;;;;;;13.19;64.76;98729.50;5087346;28;20016;-79
2021/10/24 06:47:30;;;;;;;7.50;4.45;;;;;;;15.22;58.10;98729.34;5072851;28;20115;-79
2021/10/24 06:49:55;;;;;;;7.60;3.00;;;;;;;16.28;52.85;98703.59;5080786;28;20043;-80
2021/10/24 06:52:21;;;;;;;5.22;3.55;;;;;;;16.30;51.80;98712.47;5087331;28;20086;-81
2021/10/24 06:54:46;;;;;;;6.82;3.05;;;;;;;17.88;48.08;98707.69;5082593;28;20028;-78
2021/10/24 06:57:12;;;;;;;4.70;2.83;;;;;;;19.19;44.00;98702.19;5077469;28;20075;-78
2021/10/24 06:59:42;;;;;;;7.30;3.47;;;;;;;19.85;42.26;98704.13;5085679;28;20052;-79
2021/10/24 07:02:08;;;;;;;6.47;3.13;;;;;;;20.43;39.45;98683.91;5064808;28;20140;-79
2021/10/24 07:04:33;;;;;;;9.05;2.40;;;;;;;20.80;38.67;98692.53;5075379;28;20027;-79
2021/10/24 07:06:59;;;;;;;4.75;2.45;;;;;;;21.40;38.75;98705.47;5090732;28;20039;-78
2021/10/24 07:09:24;;;;;;;5.60;2.83;;;;;;;21.95;37.61;98696.03;5100904;28;20088;-79
2021/10/24 07:11:50;;;;;;;3.50;2.15;;;;;;;22.06;34.04;98667.78;5077453;28;20074;-79
2021/10/24 07:14:15;;;;;;;4.10;2.42;;;;;;;22.47;36.28;98696.72;5056928;28;20487;-79
2021/10/24 07:16:41;;;;;;;5.60;3.15;;;;;;;22.42;35.15;98696.28;5071596;28;20479;-78
2021/10/24 07:19:06;;;;;;;8.70;4.18;;;;;;;22.70;34.77;98679.13;5081416;28;20483;-78
2021/10/24 07:21:32;;;;;;;4.70;3.05;;;;;;;23.10;34.10;98685.28;5071720;28;20475;-79
2021/10/24 07:23:58;;;;;;;5.97;3.03;;;;;;;23.05;33.85;98697.63;5076637;28;20024;-78
2021/10/24 07:26:23;;;;;;;4.35;2.80;;;;;;;23.37;33.71;98695.47;5094024;28;20028;-79
2021/10/24 07:28:49;;;;;;;5.15;3.10;;;;;;;22.11;35.36;98699.09;5075168;28;20073;-80
2021/10/24 07:31:14;;;;;;;6.88;4.22;;;;;;;23.32;35.13;98708.66;5090596;28;20024;-78
2021/10/24 07:33:40;;;;;;;6.78;3.25;;;;;;;23.26;35.67;98705.69;5093070;28;20023;-79
2021/10/24 07:36:05;;;;;;;6.38;3.17;;;;;;;22.91;36.01;98709.88;5085749;28;20027;-80
2021/10/24 07:38:31;;;;;;;6.30;3.70;;;;;;;23.06;34.93;98708.44;5089142;28;20173;-78
2021/10/24 07:40:57;;;;;;;4.95;2.95;;;;;;;23.15;35.55;98707.56;5104813;28;20156;-78
2021/10/24 07:43:24;;;;;;;4.13;3.30;;;;;;;23.35;36.28;98724.75;5080672;28;20107;-77
2021/10/24 07:45:51;;;;;;;7.20;3.22;;;;;;;23.63;35.98;98712.09;5065703;28;20039;-78
2021/10/24 07:48:17;;;;;;;3.13;2.63;;;;;;;23.46;33.58;98719.19;5062950;28;20027;-79
2021/10/24 07:50:43;;;;;;;7.65;2.20;;;;;;;23.61;32.40;98714.97;5089826;28;20031;-78
2021/10/24 07:53:10;;;;;;;7.10;3.25;;;;;;;22.06;32.58;98704.09;5060475;28;20020;-78
2021/10/24 07:55:36;;;;;;;4.55;3.03;;;;;;;20.85;35.05;98717.50;5055311;28;20395;-77
2021/10/24 07:58:02;;;;;;;3.65;2.42;;;;;;;18.11;40.15;98733.09;5063903;28;20043;-78
2021/10/24 08:00:28;;;;;;;3.25;2.35;;;;;;;18.47;40.87;98733.06;5058838;28;20039;-78
2021/10/24 08:02:54;;;;;;;3.60;1.80;;;;;;;19.11;37.84;98728.16;5087284;28;20446;-78
2021/10/24 08:05:20;;;;;;;6.28;2.30;;;;;;;21.02;35.38;98716.06;5081659;28;20038;-78
2021/10/24 08:07:45;;;;;;;3.75;2.00;;;;;;;21.66;34.32;98711.34;5082366;28;20041;-78
2021/10/24 08:10:12;;;;;;;4.53;2.22;;;;;;;22.98;33.50;98715.63;5071174;28;20031;-76
2021/10/24 08:12:39;;;;;;;5.35;1.83;;;;;;;23.55;31.82;98709.25;5109198;28;20036;-79
2021/10/24 08:15:06;;;;;;;3.15;2.00;;;;;;;21.86;34.01;98702.28;5067072;28;20020;-78
2021/10/24 08:17:32;;;;;;;5.05;2.63;;;;;;;21.45;33.56;98715.94;5084239;28;20026;-79
2021/10/24 08:19:57;;;;;;;4.78;2.28;;;;;;;22.03;32.84;98704.38;5087220;28;20494;-80
2021/10/24 08:22:24;;;;;;;5.97;2.42;;;;;;;22.67;33.14;98710.28;5063748;28;20031;-79
2021/10/24 08:24:49;;;;;;;6.65;2.20;;;;;;;23.76;30.50;98693.50;5079944;28;20536;-79
2021/10/24 08:27:15;;;;;;;5.55;2.40;;;;;;;22.87;31.41;98697.50;5077369;28;20032;-80
2021/10/24 08:29:41;;;;;;;6.68;2.20;;;;;;;22.04;31.11;98699.78;5062799;28;20414;-79
2021/10/24 08:32:10;;;;;;;7.57;3.08;;;;;;;22.56;31.66;98701.34;5071970;28;20063;-78
2021/10/24 08:34:40;;;;;;;4.60;2.35;;;;;;;21.15;33.03;98707.72;5075959;28;20085;-78
2021/10/24 08:37:07;;;;;;;4.70;2.00;;;;;;;21.65;32.10;98704.19;5067528;28;20049;-79
2021/10/24 08:39:34;;;;;;;3.65;1.98;;;;;;;19.71;34.57;98711.66;5064452;28;20058;-79
2021/10/24 08:42:02;;;;;;;6.43;3.10;;;;;;;20.34;36.35;98732.72;5063427;28;20034;-81
2021/10/24 08:44:29;;;;;;;4.05;1.95;;;;;;;21.49;33.91;98714.69;5095350;28;20533;-78
2021/10/24 08:46:54;;;;;;;3.40;1.77;;;;;;;22.35;31.59;98714.22;5087564;28;20020;-81
2021/10/24 08:49:20;;;;;;;3.40;2.30;;;;;;;22.30;32.54;98713.78;5081106;28;20081;-78
2021/10/24 08:51:47;;;;;;;5.47;3.63;;;;;;;24.38;28.21;98690.06;5086473;28;20031;-79
2021/10/24 08:54:13;;;;;;;6.50;3.72;;;;;;;24.55;28.48;98704.78;5063283;28;20069;-78
2021/10/24 08:56:39;;;;;;;8.27;2.70;;;;;;;23.71;28.82;98709.50;5082027;28;20026;-78
2021/10/24 08:59:05;;;;;;;4.15;2.03;;;;;;;23.65;28.86;98710.09;5088490;28;20028;-78
2021/10/24 09:01:31;;;;;;;3.08;1.80;;;;;;;21.59;29.63;98691.09;5059799;28;20498;-78
2021/10/24 09:04:08;;;;;;;3.10;1.58;;;;;;;20.16;32.42;98720.63;5058294;28;20114;-79
2021/10/24 09:06:53;;;;;;;3.83;1.98;;;;;;;19.98;32.62;98725.72;5084731;28;20016;-78
2021/10/24 09:09:41;;;;;;;6.93;2.83;;;;;;;19.37;33.56;98721.59;5061041;28;20475;-77
2021/10/24 09:12:12;;;;;;;4.15;2.10;;;;;;;21.07;30.65;98719.25;5075811;28;20115;-79
2021/10/24 09:14:52;;;;;;;4.22;2.55;;;;;;;22.50;29.45;98697.31;5082081;28;20092;-78
2021/10/24 09:17:24;;;;;;;4.90;2.20;;;;;;;23.03;29.11;98702.41;5091581;28;20055;-78
2021/10/24 09:19:56;;;;;;;4.93;3.10;;;;;;;23.49;28.38;98699.78;5055119;28;20035;-79
2021/10/24 09:22:23;;;;;;;;;;;;;;;24.82;26.65;98704.78;5087381;28;20027;-79
2021/10/24 09:25:07;;;;;;;5.40;2.00;;;;;;;25.09;24.47;98687.38;5055852;28;19923;-78
2021/10/24 09:27:46;;;;;;;4.60;1.48;;;;;;;21.44;27.29;98692.47;5066262;28;20410;-80
2021/10/24 09:30:36;;;;;;;3.17;1.70;;;;;;;22.78;26.16;98692.06;5076328;28;20501;-80
2021/10/24 09:33:04;;;;;;;6.75;1.40;;;;;;;23.70;27.06;98696.81;5078220;28;20087;-79
2021/10/24 09:35:35;;;;;;;3.22;2.10;;;;;;;23.32;25.02;98680.53;5060693;28;20015;-78
2021/10/24 09:38:04;;;;;;;3.10;1.30;;;;;;;20.33;28.09;98692.97;5057242;28;20027;-79
2021/10/24 09:40:36;;;;;;;3.42;1.42;;;;;;;21.95;27.13;98687.84;5081332;28;20513;-79
2021/10/24 09:43:21;;;;;;;3.67;1.60;;;;;;;23.26;24.48;98683.84;5069104;28;20035;-79
2021/10/24 09:46:12;;;;;;;3.15;1.88;;;;;;;25.09;22.43;98666.34;5085461;28;20384;-80
2021/10/24 09:48:44;;;;;;;3.80;2.03;;;;;;;25.35;23.32;98688.25;5074695;28;20093;-80
2021/10/24 09:51:13;;;;;;;;;;;;;;;24.35;23.43;98675.81;5080386;28;20027;-80
2021/10/24 09:53:42;;;;;;;5.65;1.67;;;;;;;22.28;26.69;98683.03;5068818;28;19919;-78
2021/10/24 09:56:11;;;;;;;4.20;2.10;;;;;;;22.58;25.45;98663.84;5053520;28;20577;-79
2021/10/24 09:58:38;;;;;;;9.80;3.65;;;;;;;23.61;24.64;98664.94;5077050;28;20048;-79
2021/10/24 10:01:09;;;;;;;3.67;1.65;;;;;;;24.11;24.63;98665.47;5059694;28;20176;-79
2021/10/24 10:03:39;;;;;;;2.50;1.40;;;;;;;25.00;23.51;98672.75;5104484;28;20421;-78
2021/10/24 10:06:04;;;;;;;3.47;1.70;;;;;;;25.08;23.09;98663.75;5111816;28;20028;-78
2021/10/24 10:08:31;;;;;;;3.67;1.60;;;;;;;25.63;23.20;98675.28;5078734;28;20028;-79
2021/10/24 10:11:15;;;;;;;2.10;1.25;;;;;;;25.31;22.46;98656.75;5066204;28;20028;-79
2021/10/24 10:13:42;;;;;;;3.22;1.60;;;;;;;25.19;22.20;98661.63;5096738;28;20047;-82
2021/10/24 10:16:14;;;;;;;3.25;1.70;;;;;;;25.07;22.56;98649.19;5076321;28;20387;-79
2021/10/24 10:19:03;;;;;;;4.18;1.60;;;;;;;25.27;23.30;98658.94;5094580;28;20030;-79
2021/10/24 10:21:44;;;;;;;4.93;1.75;;;;;;;25.26;22.34;98653.59;5089677;28;20110;-79
2021/10/24 10:24:31;;;;;;;3.58;1.90;;;;;;;24.56;23.67;98649.91;5072759;28;20027;-78
2021/10/24 10:26:56;;;;;;;5.28;2.03;;;;;;;24.94;22.04;98654.22;5116919;28;20076;-78
2021/10/24 10:29:48;;;;;;;7.65;3.63;;;;;;;23.51;23.11;98648.56;5083748;28;20032;-78
2021/10/24 10:32:15;;;;;;;4.37;2.00;;;;;;;24.12;23.92;98654.34;5095379;28;20495;-78
2021/10/24 10:35:00;;;;;;;9.75;3.00;;;;;;;24.81;22.67;98659.25;5060583;28;20031;-79
2021/10/24 10:37:45;;;;;;;3.25;1.80;;;;;;;24.42;21.90;98641.38;5095975;28;20020;-80
2021/10/24 10:40:34;;;;;;;3.15;2.00;;;;;;;25.49;21.03;98635.66;5098712;28;20111;-80
2021/10/24 10:43:21;;;;;;;3.53;1.70;;;;;;;26.56;20.42;98646.91;5060325;28;20393;-80
2021/10/24 10:45:56;;;;;;;5.00;2.30;;;;;;;26.29;20.97;98634.34;5090193;28;20089;-80
2021/10/24 10:48:36;;;;;;;3.85;1.65;;;;;;;26.40;21.37;98645.00;5065619;28;20039;-80
2021/10/24 10:51:23;;;;;;;4.25;1.33;;;;;;;26.17;21.82;98653.00;5077096;28;20570;-80
2021/10/24 10:53:53;;;;;;;4.53;1.92;;;;;;;26.48;21.95;98645.03;5071201;28;20084;-78
2021/10/24 10:56:26;;;;;;;3.42;2.30;;;;;;;26.50;20.79;98642.09;5084005;28;20506;-88
2021/10/24 10:59:04;;;;;;;4.03;1.88;;;;;;;23.49;22.96;98633.34;5101226;28;20063;-80
2021/10/24 11:01:39;;;;;;;5.03;1.85;;;;;;;24.57;23.54;98648.03;5071655;28;20400;-80
2021/10/24 11:04:07;;;;;;;9.57;4.55;;;;;;;24.46;22.42;98643.63;5068164;28;20784;-78
2021/10/24 11:06:36;;;;;;;13.20;6.65;;;;;;;25.50;22.55;98647.50;5080666;28;20073;-85
2021/10/24 11:09:09;;;;;;;5.40;2.08;;;;;;;25.87;22.14;98648.03;5099511;28;20035;-83
2021/10/24 11:11:42;;;;;;;5.43;2.50;;;;;;;26.08;21.67;98633.91;5070660;28;20479;-84
2021/10/24 11:14:14;;;;;;;2.88;1.83;;;;;;;25.84;21.79;98645.63;5083218;28;20035;-86
2021/10/24 11:16:47;;;;;;;6.22;1.48;;;;;;;25.17;21.18;98636.25;5089241;28;20019;-85
2021/10/24 11:19:28;;;;;;;3.35;1.50;;;;;;;25.29;21.19;98636.84;5082758;28;20024;-85
2021/10/24 11:22:00;;;;;;;17.97;8.23;;;;;;;24.45;21.96;98630.13;5085274;28;20030;-83
2021/10/24 11:24:27;;;;;;;22.55;8.18;;;;;;;25.19;22.12;98628.75;5081245;28;20028;-78
2021/10/24 11:27:00;;;;;;;9.77;4.13;;;;;;;26.90;20.44;98625.72;5083509;28;20032;-78
2021/10/24 11:29:27;;;;;;;12.52;4.75;;;;;;;26.48;21.17;98619.47;5089223;28;20024;-77
2021/10/24 11:32:33;;;;;;;16.42;6.63;;;;;;;26.00;21.45;98622.88;5066093;28;20115;-76
2021/10/24 11:35:08;;;;;;;10.82;4.03;;;;;;;25.29;22.31;98629.50;5087526;28;20522;-77
2021/10/24 11:37:40;;;;;;;4.18;2.10;;;;;;;25.03;21.75;98617.69;5090942;28;20089;-76